Time;durP1;ratioP1;P1;durP2;ratioP2;P2;SDS_P1;SDS_P2;PMS_P1;PMS_P2;Temp;Humidity;BMP_temperature;BMP_pressure;BME280_temperature;BME280_humidity;BME280_pressure;Samples;Min_cycle;Max_cycle;Signal;HPM_P1;HPM_P2
2023/11/06 00:01:10;;;;;;;3.38;0.68;;;10.60;99.90;;;;;;6228093;28;20913;-78
2023/11/06 00:04:14;;;;;;;1.10;0.90;;;10.70;99.90;;;;;;6228432;28;20048;-78
2023/11/06 00:07:16;;;;;;;1.50;0.63;;;10.70;99.90;;;;;;6227368;28;20048;-79
2023/11/06 00:10:17;;;;;;;2.15;1.13;;;10.80;99.90;;;;;;6241905;28;20410;-78
2023/11/06 00:13:20;;;;;;;4.70;0.95;;;10.90;99.90;;;;;;6227572;28;20058;-79
2023/11/06 00:16:22;;;;;;;6.68;1.77;;;10.90;99.90;;;;;;6167190;28;20053;-78
2023/11/06 00:19:24;;;;;;;1.33;0.80;;;10.90;99.90;;;;;;6229411;28;20049;-79
2023/11/06 00:22:26;;;;;;;1.63;0.80;;;10.90;99.90;;;;;;6218824;28;20060;-78
2023/11/06 00:25:27;;;;;;;3.65;1.90;;;11.00;99.90;;;;;;6225914;28;20471;-78
2023/11/06 00:28:31;;;;;;;4.32;1.50;;;11.10;99.90;;;;;;6225401;28;20048;-79
2023/11/06 00:31:38;;;;;;;3.28;0.70;;;11.10;99.90;;;;;;6225773;28;20046;-78
2023/11/06 00:34:40;;;;;;;1.40;0.70;;;11.10;99.90;;;;;;6225322;28;20042;-78
2023/11/06 00:37:41;;;;;;;5.45;1.60;;;11.20;99.90;;;;;;6233381;28;20046;-79
2023/11/06 00:40:43;;;;;;;5.05;1.25;;;11.30;99.90;;;;;;6233443;28;20521;-78
2023/11/06 00:43:46;;;;;;;3.30;0.93;;;11.30;99.90;;;;;;6228281;28;20457;-78
2023/11/06 00:46:48;;;;;;;3.80;0.85;;;11.30;99.90;;;;;;6238934;28;20112;-78
2023/11/06 00:49:49;;;;;;;1.08;0.98;;;11.30;99.90;;;;;;6244743;28;20434;-78
2023/11/06 00:52:51;;;;;;;1.55;0.85;;;11.30;99.90;;;;;;6238485;28;20072;-78
2023/11/06 00:55:53;;;;;;;1.35;0.85;;;11.30;99.90;;;;;;6230924;28;20050;-78
2023/11/06 00:58:58;;;;;;;1.60;0.60;;;11.30;99.90;;;;;;6223322;28;20141;-78
2023/11/06 01:01:59;;;;;;;0.77;0.50;;;11.30;99.90;;;;;;6222459;28;20422;-78
2023/11/06 01:05:01;;;;;;;6.32;1.60;;;11.30;99.90;;;;;;6245618;28;20053;-78
2023/11/06 01:08:04;;;;;;;4.15;0.90;;;11.30;99.90;;;;;;6236047;28;20129;-78
2023/11/06 01:11:06;;;;;;;3.80;0.80;;;11.40;99.90;;;;;;6247042;28;20041;-78
2023/11/06 01:14:09;;;;;;;1.02;0.80;;;11.40;99.90;;;;;;6227798;28;20052;-78
2023/11/06 01:17:12;;;;;;;5.43;0.98;;;11.40;99.90;;;;;;6225315;28;20046;-78
2023/11/06 01:20:15;;;;;;;3.15;0.90;;;11.40;99.90;;;;;;6225142;28;20088;-78
2023/11/06 01:23:17;;;;;;;3.58;0.70;;;11.40;99.90;;;;;;6225988;28;20442;-78
2023/11/06 01:26:18;;;;;;;4.15;0.63;;;11.40;99.90;;;;;;6224314;28;20120;-78
2023/11/06 01:29:21;;;;;;;1.77;1.20;;;11.40;99.90;;;;;;6222830;28;20054;-78
2023/11/06 01:32:23;;;;;;;1.90;1.10;;;11.40;99.90;;;;;;6221874;28;20050;-78
2023/11/06 01:35:27;;;;;;;2.63;0.70;;;11.30;99.90;;;;;;6224147;28;20050;-78
2023/11/06 01:38:30;;;;;;;2.50;0.82;;;11.20;99.90;;;;;;6216031;28;20050;-77
2023/11/06 01:41:32;;;;;;;3.90;0.85;;;11.20;99.90;;;;;;6223395;28;20507;-78
2023/11/06 01:44:35;;;;;;;1.88;0.73;;;11.10;99.90;;;;;;6220869;28;20046;-78
2023/11/06 01:47:37;;;;;;;2.40;0.68;;;11.10;99.90;;;;;;6223834;28;20072;-78
2023/11/06 01:50:40;;;;;;;2.47;0.95;;;11.00;99.90;;;;;;6223163;28;20048;-78
2023/11/06 01:53:43;;;;;;;2.97;0.65;;;11.00;99.90;;;;;;6223842;28;20057;-79
2023/11/06 01:56:45;;;;;;;1.35;1.17;;;11.00;99.90;;;;;;6224733;28;20053;-78
2023/11/06 01:59:48;;;;;;;0.90;0.65;;;11.00;99.90;;;;;;6224873;28;20046;-78
2023/11/06 02:02:50;;;;;;;1.70;0.70;;;11.00;99.90;;;;;;6226354;28;20080;-78
2023/11/06 02:05:53;;;;;;;3.60;0.95;;;10.90;99.90;;;;;;6237313;28;20072;-77
2023/11/06 02:08:54;;;;;;;1.58;0.73;;;10.70;99.90;;;;;;6233596;28;20530;-78
2023/11/06 02:11:57;;;;;;;1.73;0.70;;;10.50;99.90;;;;;;6233359;28;20037;-78
2023/11/06 02:15:00;;;;;;;3.60;2.35;;;10.40;99.90;;;;;;6239329;28;20064;-77
2023/11/06 02:18:02;;;;;;;2.63;0.60;;;10.30;99.90;;;;;;6237629;28;20052;-78
2023/11/06 02:21:05;;;;;;;2.42;0.50;;;10.20;99.90;;;;;;6239575;28;20046;-78
2023/11/06 02:24:09;;;;;;;2.33;0.85;;;10.20;99.90;;;;;;6235615;28;20494;-77
2023/11/06 02:27:11;;;;;;;5.53;0.60;;;10.10;99.90;;;;;;6225208;28;20129;-78
2023/11/06 02:30:13;;;;;;;5.75;0.90;;;10.00;99.90;;;;;;6227898;28;20052;-78
2023/11/06 02:33:14;;;;;;;3.97;0.45;;;10.00;99.90;;;;;;6229205;28;20045;-78
2023/11/06 02:36:16;;;;;;;5.47;0.88;;;9.90;99.90;;;;;;6239345;28;20065;-78
2023/11/06 02:39:19;;;;;;;0.93;0.52;;;9.90;99.90;;;;;;6245395;28;20045;-78
2023/11/06 02:42:21;;;;;;;0.85;0.63;;;9.80;99.90;;;;;;6240237;28;20536;-78
2023/11/06 02:45:23;;;;;;;0.30;0.30;;;9.80;99.90;;;;;;6233820;28;20057;-77
2023/11/06 02:48:25;;;;;;;2.42;0.52;;;9.80;99.90;;;;;;6229736;28;20045;-78
2023/11/06 02:51:26;;;;;;;2.80;0.65;;;9.80;99.90;;;;;;6239488;28;20050;-78
2023/11/06 02:54:29;;;;;;;1.58;0.60;;;9.80;99.90;;;;;;6221501;28;20045;-78
2023/11/06 02:57:31;;;;;;;4.28;0.65;;;9.80;99.90;;;;;;6222469;28;20053;-78
2023/11/06 03:00:37;;;;;;;1.17;0.60;;;9.80;99.90;;;;;;6223728;28;20046;-78
2023/11/06 03:03:39;;;;;;;0.55;0.45;;;9.80;99.90;;;;;;6225270;28;20240;-78
2023/11/06 03:06:41;;;;;;;2.83;0.88;;;9.80;99.90;;;;;;6224170;28;20054;-79
2023/11/06 03:09:45;;;;;;;0.77;0.60;;;9.80;99.90;;;;;;6223801;28;20058;-79
2023/11/06 03:12:47;;;;;;;1.38;0.52;;;9.80;99.90;;;;;;6232453;28;20073;-79
2023/11/06 03:15:49;;;;;;;2.63;0.73;;;9.90;99.90;;;;;;6224632;28;20576;-77
2023/11/06 03:18:50;;;;;;;1.13;0.68;;;9.90;99.90;;;;;;6226314;28;20046;-79
2023/11/06 03:21:52;;;;;;;3.47;0.90;;;9.80;99.90;;;;;;6228588;28;20046;-78
2023/11/06 03:24:55;;;;;;;4.85;1.02;;;9.80;99.90;;;;;;6229398;28;20041;-78
2023/11/06 03:27:57;;;;;;;4.38;0.75;;;9.90;99.90;;;;;;6229051;28;20049;-79
2023/11/06 03:30:59;;;;;;;4.72;0.82;;;9.90;99.90;;;;;;6237666;28;20049;-79
2023/11/06 03:34:01;;;;;;;2.05;0.98;;;9.90;99.90;;;;;;6228273;28;20068;-79
2023/11/06 03:37:03;;;;;;;1.15;0.55;;;9.90;99.90;;;;;;6232473;28;20045;-78
2023/11/06 03:40:09;;;;;;;1.80;0.70;;;9.90;99.90;;;;;;6241212;28;20137;-77
2023/11/06 03:43:11;;;;;;;5.68;0.93;;;9.80;99.90;;;;;;6231997;28;20467;-78
2023/11/06 03:46:12;;;;;;;0.65;0.63;;;9.80;99.90;;;;;;6239130;28;20038;-78
2023/11/06 03:49:14;;;;;;;4.43;1.70;;;9.70;99.90;;;;;;6228535;28;20180;-78
2023/11/06 03:52:16;;;;;;;0.73;0.73;;;9.60;99.90;;;;;;6241043;28;20471;-77
2023/11/06 03:55:19;;;;;;;1.35;0.82;;;9.60;99.90;;;;;;6227630;28;20046;-78
2023/11/06 03:58:21;;;;;;;4.68;0.88;;;9.60;99.90;;;;;;6228548;28;20054;-78
2023/11/06 04:01:22;;;;;;;7.22;1.65;;;9.70;99.90;;;;;;6230090;28;20060;-78
2023/11/06 04:04:24;;;;;;;1.00;0.73;;;9.70;99.90;;;;;;6234024;28;20701;-78
2023/11/06 04:07:26;;;;;;;4.45;0.82;;;9.70;99.90;;;;;;6234097;28;20057;-78
2023/11/06 04:10:29;;;;;;;4.90;1.35;;;9.70;99.90;;;;;;6224681;28;20061;-78
2023/11/06 04:13:31;;;;;;;4.72;0.90;;;9.70;99.90;;;;;;6209527;28;20054;-78
2023/11/06 04:16:32;;;;;;;2.70;0.60;;;9.80;99.90;;;;;;6208006;28;20049;-78
2023/11/06 04:19:34;;;;;;;6.50;1.52;;;9.80;99.90;;;;;;6216104;28;20181;-78
2023/11/06 04:22:36;;;;;;;1.65;0.85;;;9.70;99.90;;;;;;6216600;28;20388;-78
2023/11/06 04:25:39;;;;;;;3.10;1.00;;;9.70;99.90;;;;;;6224666;28;20050;-78
2023/11/06 04:28:41;;;;;;;0.85;0.30;;;9.70;99.90;;;;;;6216162;28;20296;-78
2023/11/06 04:31:43;;;;;;;3.22;0.45;;;9.70;99.90;;;;;;6211843;28;20045;-78
2023/11/06 04:34:44;;;;;;;2.15;0.55;;;9.80;99.90;;;;;;6223923;28;20076;-78
2023/11/06 04:37:47;;;;;;;3.78;1.00;;;9.80;99.90;;;;;;6216901;28;20267;-78
2023/11/06 04:40:50;;;;;;;6.28;0.90;;;9.80;99.90;;;;;;6224284;28;20053;-79
2023/11/06 04:43:51;;;;;;;2.35;0.50;;;9.80;99.90;;;;;;6209765;28;20422;-78
2023/11/06 04:46:53;;;;;;;0.98;0.85;;;9.80;99.90;;;;;;6226807;28;20049;-78
2023/11/06 04:49:55;;;;;;;1.55;0.55;;;9.90;99.90;;;;;;6207919;28;20052;-78
2023/11/06 04:52:57;;;;;;;13.38;1.27;;;9.90;99.90;;;;;;6209607;28;20057;-78
2023/11/06 04:56:04;;;;;;;0.70;0.40;;;9.80;99.90;;;;;;6210714;28;20128;-78
2023/11/06 04:59:05;;;;;;;3.78;0.80;;;9.80;99.90;;;;;;6224377;28;20546;-78
2023/11/06 05:02:07;;;;;;;4.55;1.15;;;9.80;99.90;;;;;;6211480;28;20063;-77
2023/11/06 05:05:09;;;;;;;1.02;0.47;;;9.90;99.90;;;;;;6199323;28;20064;-78
2023/11/06 05:08:11;;;;;;;0.70;0.60;;;9.90;99.90;;;;;;6199226;28;20062;-78
2023/11/06 05:11:14;;;;;;;1.83;0.95;;;9.90;99.90;;;;;;6200080;28;20053;-78
2023/11/06 05:14:16;;;;;;;3.15;0.73;;;9.90;99.90;;;;;;6198752;28;20051;-78
2023/11/06 05:17:17;;;;;;;4.07;0.73;;;10.00;99.90;;;;;;6205056;28;20042;-78
2023/11/06 05:23:23;;;;;;;4.55;1.17;;;10.00;99.90;;;;;;6181270;28;20511;-71
2023/11/06 05:26:27;;;;;;;9.95;1.15;;;10.10;99.90;;;;;;6189051;28;20062;-71
2023/11/06 05:29:28;;;;;;;5.30;0.50;;;10.20;99.90;;;;;;6187231;28;20143;-72
2023/11/06 05:32:30;;;;;;;4.00;1.05;;;10.20;99.90;;;;;;6196859;28;20042;-72
2023/11/06 05:35:32;;;;;;;2.67;0.70;;;10.20;99.90;;;;;;6194191;28;20088;-72
2023/11/06 05:38:34;;;;;;;3.13;1.30;;;10.20;99.90;;;;;;6172373;28;20058;-71
2023/11/06 05:41:37;;;;;;;2.53;0.38;;;10.20;99.90;;;;;;6172560;28;20492;-72
2023/11/06 05:44:41;;;;;;;0.90;0.60;;;10.20;99.90;;;;;;6164739;28;20420;-72
2023/11/06 05:47:43;;;;;;;0.38;0.32;;;10.20;99.90;;;;;;6173253;28;20053;-72
2023/11/06 05:50:45;;;;;;;1.90;0.60;;;10.30;99.90;;;;;;6172300;28;20487;-72
2023/11/06 05:53:47;;;;;;;4.57;0.75;;;10.30;99.90;;;;;;6172456;28;20047;-73
2023/11/06 05:56:50;;;;;;;1.23;0.38;;;10.30;99.90;;;;;;6172558;28;20038;-73
2023/11/06 05:59:51;;;;;;;2.65;0.77;;;10.30;99.90;;;;;;6172789;28;20057;-75
2023/11/06 06:02:53;;;;;;;3.60;0.57;;;10.30;99.90;;;;;;6171927;28;20057;-75
2023/11/06 06:05:55;;;;;;;1.48;0.82;;;10.30;99.90;;;;;;6164060;28;20414;-76
2023/11/06 06:08:56;;;;;;;3.33;0.28;;;10.30;99.90;;;;;;6180627;28;20038;-76
2023/11/06 06:11:59;;;;;;;2.50;0.40;;;10.30;99.90;;;;;;6176908;28;20053;-76
2023/11/06 06:15:01;;;;;;;1.15;0.60;;;10.30;99.90;;;;;;6172529;28;20054;-76
2023/11/06 06:18:03;;;;;;;2.50;0.60;;;10.30;99.90;;;;;;6169389;28;20141;-76
2023/11/06 06:21:06;;;;;;;3.80;0.60;;;10.30;99.90;;;;;;6166490;28;20047;-76
2023/11/06 06:24:08;;;;;;;2.58;0.50;;;10.30;99.90;;;;;;6172143;28;20050;-76
2023/11/06 06:27:11;;;;;;;0.32;0.32;;;10.30;99.90;;;;;;6172608;28;20058;-76
2023/11/06 06:30:14;;;;;;;0.50;0.47;;;10.40;99.90;;;;;;6171486;28;20427;-76
2023/11/06 06:33:16;;;;;;;2.10;0.65;;;10.40;99.90;;;;;;6171343;28;20141;-76
2023/11/06 06:36:18;;;;;;;0.95;0.40;;;10.50;99.90;;;;;;6171131;28;20500;-76
2023/11/06 06:39:21;;;;;;;3.10;0.60;;;10.50;99.90;;;;;;6172474;28;20679;-76
2023/11/06 06:42:24;;;;;;;1.35;0.50;;;10.50;99.90;;;;;;6171688;28;20472;-75
2023/11/06 06:45:25;;;;;;;2.92;0.43;;;10.60;99.90;;;;;;6171594;28;20043;-75
2023/11/06 06:48:27;;;;;;;1.08;0.88;;;10.60;99.90;;;;;;6171725;28;20069;-76
2023/11/06 06:51:29;;;;;;;0.38;0.38;;;10.70;99.90;;;;;;6171757;28;20047;-75
2023/11/06 06:54:31;;;;;;;1.92;0.55;;;10.70;99.90;;;;;;6175395;28;20047;-76
2023/11/06 06:57:34;;;;;;;4.18;0.65;;;10.70;99.90;;;;;;6176239;28;20518;-75
2023/11/06 07:00:35;;;;;;;4.13;0.43;;;10.70;99.90;;;;;;6176434;28;20045;-76
2023/11/06 07:03:37;;;;;;;3.83;0.63;;;10.80;99.90;;;;;;6176602;28;20058;-76
2023/11/06 07:06:39;;;;;;;1.73;0.32;;;10.80;99.90;;;;;;6176292;28;20047;-75
2023/11/06 07:09:40;;;;;;;2.53;0.93;;;10.90;99.90;;;;;;6176226;28;20050;-75
2023/11/06 07:12:44;;;;;;;1.40;0.30;;;11.00;99.90;;;;;;6175313;28;20491;-75
2023/11/06 07:15:45;;;;;;;1.48;0.60;;;11.00;99.90;;;;;;6177050;28;20059;-76
2023/11/06 07:18:47;;;;;;;0.90;0.70;;;11.10;99.90;;;;;;6179708;28;20050;-76
2023/11/06 07:21:49;;;;;;;0.82;0.43;;;11.10;99.90;;;;;;6168061;28;20054;-76
2023/11/06 07:24:50;;;;;;;5.30;0.68;;;11.10;99.90;;;;;;6175749;28;20053;-76
2023/11/06 07:27:53;;;;;;;0.47;0.43;;;11.20;99.90;;;;;;6176544;28;20058;-75
2023/11/06 07:30:55;;;;;;;1.80;0.60;;;11.30;99.90;;;;;;6175143;28;20047;-76
2023/11/06 07:33:57;;;;;;;1.70;0.57;;;11.40;99.90;;;;;;6175598;28;20618;-76
2023/11/06 07:36:58;;;;;;;2.35;0.80;;;11.60;99.90;;;;;;6175464;28;20418;-76
2023/11/06 07:40:00;;;;;;;1.35;0.60;;;11.80;99.90;;;;;;6175647;28;20401;-75
2023/11/06 07:43:03;;;;;;;1.08;0.82;;;12.00;99.90;;;;;;6175439;28;20392;-76
2023/11/06 07:46:06;;;;;;;0.50;0.50;;;12.20;99.90;;;;;;6175391;28;20042;-76
2023/11/06 07:49:07;;;;;;;2.35;0.98;;;12.30;99.90;;;;;;6174445;28;20526;-75
2023/11/06 07:52:10;;;;;;;1.25;0.60;;;12.40;99.90;;;;;;6174699;28;20594;-75
2023/11/06 07:55:11;;;;;;;1.35;0.50;;;12.50;99.90;;;;;;6175870;28;20050;-75
2023/11/06 07:58:15;;;;;;;1.75;0.77;;;12.70;99.90;;;;;;6175090;28;20507;-75
2023/11/06 08:01:17;;;;;;;1.75;0.85;;;12.80;99.90;;;;;;6175320;28;20047;-75
2023/11/06 08:04:19;;;;;;;5.65;1.20;;;12.90;99.90;;;;;;6174079;28;20058;-76
2023/11/06 08:07:21;;;;;;;2.10;0.63;;;13.10;99.90;;;;;;6175704;28;20066;-76
2023/11/06 08:10:27;;;;;;;4.72;0.77;;;13.20;99.90;;;;;;6174176;28;20054;-76
2023/11/06 08:13:30;;;;;;;3.63;0.73;;;13.30;99.90;;;;;;6174769;28;20053;-76
2023/11/06 08:16:32;;;;;;;1.05;0.55;;;13.30;99.90;;;;;;6175199;28;20667;-75
2023/11/06 08:19:38;;;;;;;1.33;0.90;;;13.50;99.90;;;;;;6175010;28;20066;-75
2023/11/06 08:22:40;;;;;;;0.65;0.40;;;13.60;99.90;;;;;;6172345;28;20039;-74
2023/11/06 08:26:25;;;;;;;1.85;0.40;;;13.80;99.90;;;;;;6120773;28;20054;-75
2023/11/06 08:29:29;;;;;;;2.47;0.40;;;14.00;99.90;;;;;;6172217;28;20066;-75
2023/11/06 08:32:31;;;;;;;6.05;0.60;;;14.30;99.90;;;;;;6173307;28;20055;-76
2023/11/06 08:35:33;;;;;;;1.30;0.70;;;14.50;99.90;;;;;;6174344;28;20512;-75
2023/11/06 08:38:35;;;;;;;4.25;0.73;;;14.60;99.90;;;;;;6174320;28;20046;-74
2023/11/06 08:41:37;;;;;;;1.83;0.60;;;14.80;99.90;;;;;;6173079;28;20061;-76
2023/11/06 08:44:42;;;;;;;5.15;0.90;;;15.00;99.90;;;;;;6172700;28;20042;-75
2023/11/06 08:47:44;;;;;;;0.52;0.52;;;15.00;99.90;;;;;;6176729;28;20066;-79
2023/11/06 08:50:45;;;;;;;2.78;0.82;;;14.80;99.90;;;;;;6172504;28;20142;-75
2023/11/06 08:53:47;;;;;;;1.65;1.02;;;14.80;99.90;;;;;;6172305;28;20053;-76
2023/11/06 08:56:49;;;;;;;1.30;0.63;;;14.90;99.90;;;;;;6171811;28;20054;-75
2023/11/06 08:59:52;;;;;;;0.82;0.50;;;15.00;99.90;;;;;;6174368;28;20058;-76
2023/11/06 09:02:54;;;;;;;1.98;0.75;;;15.30;99.90;;;;;;6173742;28;20416;-77
2023/11/06 09:05:56;;;;;;;0.63;0.50;;;15.60;99.90;;;;;;6174086;28;20053;-77
2023/11/06 09:08:57;;;;;;;1.92;0.45;;;15.50;99.90;;;;;;6173934;28;20471;-75
2023/11/06 09:11:59;;;;;;;5.15;0.60;;;15.30;99.90;;;;;;6174028;28;20051;-74
2023/11/06 09:15:03;;;;;;;2.33;0.80;;;15.30;99.90;;;;;;6173358;28;20046;-76
2023/11/06 09:18:04;;;;;;;2.58;0.50;;;15.50;99.90;;;;;;6174027;28;20042;-75
2023/11/06 09:21:12;;;;;;;3.13;0.40;;;15.70;99.90;;;;;;6173335;28;20047;-75
2023/11/06 09:24:14;;;;;;;1.73;0.63;;;15.70;99.90;;;;;;6173830;28;20047;-75
2023/11/06 09:27:16;;;;;;;0.75;0.50;;;15.70;99.90;;;;;;6173815;28;20054;-76
2023/11/06 09:30:19;;;;;;;0.55;0.50;;;15.50;99.90;;;;;;6176997;28;20151;-75
2023/11/06 09:33:21;;;;;;;5.05;1.95;;;15.30;99.90;;;;;;6181340;28;20515;-76
2023/11/06 09:36:23;;;;;;;2.03;0.70;;;15.20;99.90;;;;;;6173754;28;20519;-74
2023/11/06 09:39:24;;;;;;;1.10;0.63;;;15.10;99.90;;;;;;6173861;28;20051;-75
2023/11/06 09:42:26;;;;;;;1.00;0.63;;;15.40;99.90;;;;;;6172463;28;20424;-75
2023/11/06 09:45:29;;;;;;;2.72;0.90;;;15.60;99.90;;;;;;6173373;28;20051;-75
2023/11/06 09:48:32;;;;;;;2.83;0.73;;;15.30;99.90;;;;;;6170278;28;20070;-75
2023/11/06 09:51:34;;;;;;;0.77;0.68;;;15.10;99.90;;;;;;6168458;28;20050;-75
2023/11/06 09:54:37;;;;;;;2.10;0.52;;;15.30;99.90;;;;;;6169824;28;20051;-75
2023/11/06 09:57:40;;;;;;;0.70;0.52;;;15.30;99.90;;;;;;6170591;28;20061;-75
2023/11/06 10:00:44;;;;;;;4.43;0.65;;;15.40;99.90;;;;;;6173179;28;20049;-76
2023/11/06 10:03:45;;;;;;;4.28;1.08;;;15.60;99.90;;;;;;6172771;28;20105;-75
2023/11/06 10:06:50;;;;;;;0.50;0.40;;;15.90;99.90;;;;;;6172322;28;20055;-75
2023/11/06 10:09:52;;;;;;;2.63;0.75;;;16.30;99.90;;;;;;6171994;28;20058;-75
2023/11/06 10:13:04;;;;;;;1.85;0.75;;;16.70;99.90;;;;;;6172044;28;20512;-75
2023/11/06 10:16:21;;;;;;;2.42;0.60;;;16.90;99.90;;;;;;6172849;28;20057;-75
2023/11/06 10:19:24;;;;;;;2.42;0.68;;;17.10;99.90;;;;;;6172953;28;20201;-75
2023/11/06 10:22:27;;;;;;;0.50;0.40;;;17.20;99.90;;;;;;6171773;28;20424;-75
2023/11/06 10:25:29;;;;;;;2.70;0.77;;;17.50;99.90;;;;;;6171984;28;20420;-76
2023/11/06 10:28:32;;;;;;;1.65;0.75;;;17.90;99.90;;;;;;6170837;28;20054;-75
2023/11/06 10:31:40;;;;;;;2.05;0.52;;;18.30;99.90;;;;;;6172452;28;20516;-74
2023/11/06 10:34:42;;;;;;;1.90;0.38;;;18.20;99.90;;;;;;6172162;28;20125;-74
2023/11/06 10:37:44;;;;;;;0.52;0.50;;;17.80;99.90;;;;;;6172321;28;20050;-73
2023/11/06 10:40:48;;;;;;;2.00;0.55;;;17.20;99.90;;;;;;6183828;28;20121;-75
2023/11/06 10:43:51;;;;;;;0.85;0.57;;;16.70;99.90;;;;;;6172450;28;20066;-75
2023/11/06 10:46:55;;;;;;;1.83;1.23;;;16.30;99.90;;;;;;6171625;28;20531;-75
2023/11/06 10:50:04;;;;;;;4.13;0.60;;;15.90;99.90;;;;;;6172004;28;20050;-74
2023/11/06 10:53:07;;;;;;;0.75;0.52;;;15.60;99.90;;;;;;6164578;28;20054;-74
2023/11/06 10:56:11;;;;;;;1.42;0.60;;;15.50;99.90;;;;;;6172089;28;20055;-74
2023/11/06 10:59:15;;;;;;;0.43;0.43;;;15.30;99.90;;;;;;6171870;28;20070;-73
2023/11/06 11:02:34;;;;;;;0.65;0.40;;;15.20;99.90;;;;;;6171451;28;20050;-74
2023/11/06 11:05:37;;;;;;;0.50;0.40;;;14.90;99.90;;;;;;6171194;28;20038;-76
2023/11/06 11:08:38;;;;;;;0.43;0.43;;;14.70;99.90;;;;;;6171750;28;20039;-75
2023/11/06 11:11:40;;;;;;;1.90;0.70;;;14.60;99.90;;;;;;6171956;28;20047;-74
2023/11/06 11:14:42;;;;;;;0.63;0.63;;;14.50;99.90;;;;;;6171605;28;20035;-74
2023/11/06 11:17:58;;;;;;;0.60;0.52;;;14.30;99.90;;;;;;6171486;28;20602;-74
2023/11/06 11:21:04;;;;;;;8.02;3.22;;;14.30;99.90;;;;;;6198305;22;20252;-77
2023/11/06 11:24:06;;;;;;;3.22;1.05;;;14.20;99.90;;;;;;6253249;28;20401;-78
2023/11/06 11:27:10;;;;;;;1.10;1.00;;;14.10;99.90;;;;;;6246506;28;20176;-77
2023/11/06 11:30:13;;;;;;;0.68;0.50;;;14.10;99.90;;;;;;6245786;28;20052;-78
2023/11/06 11:33:48;;;;;;;3.10;0.52;;;14.00;99.90;;;;;;6230426;28;20553;-77
2023/11/06 11:36:52;;;;;;;0.90;0.60;;;14.00;99.90;;;;;;6224551;28;20422;-78
2023/11/06 11:39:55;;;;;;;0.47;0.47;;;14.10;99.90;;;;;;6229047;28;20058;-78
2023/11/06 11:43:35;;;;;;;0.55;0.55;;;14.10;99.90;;;;;;6241518;28;20065;-78
2023/11/06 11:46:54;;;;;;;0.55;0.55;;;14.10;99.90;;;;;;6234556;28;20400;-78
2023/11/06 11:49:56;;;;;;;0.30;0.30;;;14.20;99.90;;;;;;6242826;28;20046;-78
2023/11/06 11:53:00;;;;;;;0.40;0.40;;;14.20;99.90;;;;;;6243063;28;20041;-78
2023/11/06 11:56:03;;;;;;;0.40;0.40;;;14.10;99.90;;;;;;6228191;28;20053;-78
2023/11/06 11:59:05;;;;;;;1.90;0.40;;;14.00;99.90;;;;;;6224393;28;20057;-76
2023/11/06 12:02:22;;;;;;;0.88;0.50;;;13.90;99.90;;;;;;6223998;28;20048;-76
2023/11/06 12:05:24;;;;;;;1.00;0.88;;;13.70;99.90;;;;;;6227383;28;20049;-77
2023/11/06 12:08:27;;;;;;;0.55;0.25;;;13.60;99.90;;;;;;6238491;28;20129;-77
2023/11/06 12:11:32;;;;;;;0.65;0.65;;;13.50;99.90;;;;;;6234062;28;20104;-77
2023/11/06 12:14:37;;;;;;;1.52;0.30;;;13.50;99.90;;;;;;6236517;28;20037;-77
2023/11/06 12:17:39;;;;;;;1.40;0.50;;;13.50;99.90;;;;;;6228402;28;20038;-78
2023/11/06 12:20:41;;;;;;;1.98;0.43;;;13.50;99.90;;;;;;6248607;28;20045;-78
2023/11/06 12:23:44;;;;;;;0.65;0.52;;;13.60;99.90;;;;;;6247973;28;20506;-78
2023/11/06 12:26:53;;;;;;;0.28;0.28;;;13.70;99.90;;;;;;6243522;28;20076;-76
2023/11/06 12:30:01;;;;;;;2.05;0.77;;;13.90;99.90;;;;;;6248066;28;20395;-77
2023/11/06 12:33:17;;;;;;;3.80;0.80;;;13.90;99.90;;;;;;6233388;28;20050;-79
2023/11/06 12:36:29;;;;;;;3.08;1.75;;;13.90;99.90;;;;;;6232235;28;20514;-79
2023/11/06 12:39:34;;;;;;;2.50;1.23;;;13.90;99.90;;;;;;6253982;28;20413;-82
2023/11/06 12:42:38;;;;;;;2.60;0.93;;;13.80;99.90;;;;;;6250075;28;20490;-78
2023/11/06 12:45:42;;;;;;;5.78;1.15;;;13.90;99.90;;;;;;6232066;28;20045;-80
2023/11/06 12:48:46;;;;;;;9.23;5.78;;;14.00;99.90;;;;;;6235455;28;20045;-77
2023/11/06 12:51:54;;;;;;;1.70;1.02;;;14.00;99.90;;;;;;6226501;28;20053;-81
2023/11/06 12:54:57;;;;;;;0.98;0.63;;;14.00;99.90;;;;;;6245710;28;20054;-78
2023/11/06 12:58:08;;;;;;;0.70;0.55;;;14.00;99.90;;;;;;6253603;28;20049;-78
2023/11/06 13:01:20;;;;;;;13.98;7.85;;;13.90;99.90;;;;;;6230764;28;20581;-78
2023/11/06 13:04:22;;;;;;;9.60;5.60;;;14.00;99.90;;;;;;6236953;28;20050;-79
2023/11/06 13:07:23;;;;;;;3.78;0.70;;;14.00;99.90;;;;;;6239124;28;20053;-81
2023/11/06 13:10:29;;;;;;;0.88;0.50;;;14.00;99.90;;;;;;6229565;28;20136;-78
2023/11/06 13:13:31;;;;;;;1.55;0.70;;;14.00;99.90;;;;;;6233805;28;20315;-78
2023/11/06 13:16:37;;;;;;;2.38;1.52;;;14.00;99.90;;;;;;6231162;28;20533;-78
2023/11/06 13:19:39;;;;;;;43.92;24.60;;;14.00;99.90;;;;;;6231101;28;20072;-78
2023/11/06 13:22:41;;;;;;;77.80;47.42;;;14.10;99.90;;;;;;6236529;28;20045;-78
2023/11/06 13:25:44;;;;;;;10.50;6.30;;;14.00;99.90;;;;;;6232306;28;20048;-78
2023/11/06 13:28:47;;;;;;;3.88;2.92;;;13.90;99.90;;;;;;6249832;28;20048;-79
2023/11/06 13:31:49;;;;;;;1.27;1.17;;;13.90;99.90;;;;;;6241419;28;20148;-79
2023/11/06 13:34:50;;;;;;;1.13;0.70;;;13.80;99.90;;;;;;6250076;28;20049;-80
2023/11/06 13:37:53;;;;;;;14.02;6.90;;;13.70;99.90;;;;;;6237134;28;20057;-78
2023/11/06 13:40:58;;;;;;;3.20;2.22;;;13.80;99.90;;;;;;6233269;28;20051;-78
2023/11/06 13:44:00;;;;;;;4.45;2.00;;;13.90;99.90;;;;;;6240663;28;20184;-78
2023/11/06 13:47:02;;;;;;;4.30;1.95;;;13.90;99.90;;;;;;6225013;28;20230;-78
2023/11/06 13:50:11;;;;;;;0.95;0.73;;;13.90;99.90;;;;;;6230219;28;20101;-78
2023/11/06 13:53:14;;;;;;;1.00;0.95;;;13.90;99.90;;;;;;6228786;28;20408;-75
2023/11/06 13:56:19;;;;;;;2.67;0.35;;;13.90;99.90;;;;;;6220176;28;20042;-74
2023/11/06 13:59:31;;;;;;;2.70;1.80;;;13.90;99.90;;;;;;6222116;28;20072;-78
2023/11/06 14:02:32;;;;;;;2.47;0.38;;;14.00;99.90;;;;;;6225754;28;20045;-81
2023/11/06 14:05:37;;;;;;;0.80;0.45;;;14.00;99.90;;;;;;6243877;28;20049;-78
2023/11/06 14:08:39;;;;;;;0.50;0.38;;;14.00;99.90;;;;;;6229511;28;20042;-77
2023/11/06 14:11:42;;;;;;;0.22;0.20;;;13.90;99.90;;;;;;6231886;28;20423;-77
2023/11/06 14:14:43;;;;;;;1.45;0.55;;;13.80;99.90;;;;;;6231224;28;20046;-80
2023/11/06 14:17:46;;;;;;;3.33;0.40;;;13.80;99.90;;;;;;6234482;28;20041;-78
2023/11/06 14:20:50;;;;;;;0.95;0.90;;;13.80;99.90;;;;;;6233294;28;20045;-78
2023/11/06 14:23:52;;;;;;;0.70;0.70;;;13.80;99.90;;;;;;6227245;28;20068;-78
2023/11/06 14:26:55;;;;;;;7.90;2.38;;;13.80;99.90;;;;;;6242611;28;20046;-78
2023/11/06 14:29:57;;;;;;;4.85;2.50;;;13.70;99.90;;;;;;6225375;28;20042;-78
2023/11/06 14:33:04;;;;;;;2.20;1.75;;;13.70;99.90;;;;;;6229619;28;20049;-80
2023/11/06 14:36:08;;;;;;;2.07;1.80;;;13.60;99.90;;;;;;6230258;28;20056;-78
2023/11/06 14:39:14;;;;;;;2.53;1.10;;;13.60;99.90;;;;;;6234493;28;20072;-78
2023/11/06 14:42:17;;;;;;;0.30;0.30;;;13.50;99.90;;;;;;6238106;28;20221;-80
2023/11/06 14:45:18;;;;;;;1.05;0.57;;;13.40;99.90;;;;;;6238592;28;20498;-80
2023/11/06 14:48:20;;;;;;;1.73;0.55;;;13.40;99.90;;;;;;6237750;28;20076;-79
2023/11/06 14:51:23;;;;;;;1.08;0.60;;;13.40;99.90;;;;;;6226221;28;20050;-79
2023/11/06 14:54:24;;;;;;;0.38;0.20;;;13.40;99.90;;;;;;6241201;28;20045;-79
2023/11/06 14:57:27;;;;;;;0.30;0.30;;;13.40;99.90;;;;;;6246503;28;20046;-80
2023/11/06 15:00:29;;;;;;;1.02;0.50;;;13.40;99.90;;;;;;6240192;28;20461;-80
2023/11/06 15:03:31;;;;;;;0.47;0.47;;;13.50;99.90;;;;;;6245675;28;20045;-79
2023/11/06 15:06:33;;;;;;;0.60;0.30;;;13.50;99.90;;;;;;6237720;28;20053;-80
2023/11/06 15:09:35;;;;;;;0.60;0.40;;;13.50;99.90;;;;;;6242584;28;20080;-80
2023/11/06 15:12:40;;;;;;;0.20;0.20;;;13.50;99.90;;;;;;6247605;28;20055;-81
2023/11/06 15:15:42;;;;;;;2.70;0.60;;;13.40;99.90;;;;;;6251314;28;20563;-78
2023/11/06 15:18:44;;;;;;;2.80;0.80;;;13.40;99.90;;;;;;6248806;28;20537;-79
2023/11/06 15:21:46;;;;;;;1.80;0.50;;;13.30;99.90;;;;;;6246012;28;20048;-79
2023/11/06 15:24:47;;;;;;;0.10;0.10;;;13.30;99.90;;;;;;6241538;28;20042;-76
2023/11/06 15:27:52;;;;;;;1.08;0.35;;;13.20;99.90;;;;;;6244821;28;20057;-80
2023/11/06 15:30:54;;;;;;;0.40;0.40;;;13.20;99.90;;;;;;6238126;28;20092;-77
2023/11/06 15:33:56;;;;;;;0.30;0.30;;;13.10;99.90;;;;;;6248767;28;20041;-77
2023/11/06 15:36:58;;;;;;;1.35;0.40;;;13.00;99.90;;;;;;6233612;28;20502;-77
2023/11/06 15:40:00;;;;;;;1.95;0.30;;;12.90;99.90;;;;;;6226424;28;20590;-77
2023/11/06 15:43:03;;;;;;;1.23;0.40;;;12.80;99.90;;;;;;6241019;28;20052;-78
2023/11/06 15:46:05;;;;;;;2.05;0.43;;;12.60;99.90;;;;;;6248824;28;20042;-78
2023/11/06 15:49:06;;;;;;;1.23;0.90;;;12.40;99.90;;;;;;6242357;28;20448;-77
2023/11/06 15:52:10;;;;;;;1.00;0.70;;;12.00;99.90;;;;;;6248021;28;20045;-77
2023/11/06 15:55:12;;;;;;;0.13;0.13;;;11.60;99.90;;;;;;6223736;28;20073;-78
2023/11/06 15:58:16;;;;;;;0.85;0.82;;;11.20;99.90;;;;;;6238166;28;20049;-76